createdAt,value
2022-07-29T00:01:53.347Z,11.50
2022-07-29T00:04:21.522Z,4.87
2022-07-29T00:06:48.680Z,3.67
2022-07-29T00:09:15.500Z,2.97
2022-07-29T00:11:42.542Z,3.93
2022-07-29T00:14:09.603Z,4.73
2022-07-29T00:16:36.695Z,3.40
2022-07-29T00:19:04.041Z,3.23
2022-07-29T00:21:30.755Z,2.30
2022-07-29T00:23:57.365Z,4.50
2022-07-29T00:26:23.970Z,4.90
2022-07-29T00:28:50.575Z,4.53
2022-07-29T00:31:17.321Z,2.10
2022-07-29T00:33:43.900Z,4.07
2022-07-29T00:36:10.464Z,5.63
2022-07-29T00:38:37.111Z,2.70
2022-07-29T00:41:03.743Z,3.23
2022-07-29T00:43:30.355Z,3.63
2022-07-29T00:45:57.015Z,3.30
2022-07-29T00:48:23.599Z,2.57
2022-07-29T00:50:51.029Z,2.03
2022-07-29T00:53:17.854Z,3.63
2022-07-29T00:55:44.526Z,2.03
2022-07-29T00:58:13.259Z,2.17
2022-07-29T01:00:41.703Z,3.57
2022-07-29T01:03:08.907Z,4.33
2022-07-29T01:05:51.257Z,8.50
2022-07-29T01:08:19.406Z,4.50
2022-07-29T01:10:47.766Z,4.17
2022-07-29T01:13:16.874Z,3.23
2022-07-29T01:15:51.346Z,4.07
2022-07-29T01:18:36.981Z,2.93
2022-07-29T01:21:38.650Z,3.40
2022-07-29T01:24:34.770Z,3.40
2022-07-29T01:27:13.306Z,5.30
2022-07-29T01:29:47.900Z,2.87
2022-07-29T01:32:28.679Z,2.27
2022-07-29T01:35:06.865Z,2.60
2022-07-29T01:37:43.940Z,4.30
2022-07-29T01:40:29.917Z,4.20
2022-07-29T01:43:00.812Z,2.03
2022-07-29T01:45:42.499Z,1.63
2022-07-29T01:48:28.373Z,2.97
2022-07-29T01:51:06.759Z,2.13
2022-07-29T01:53:43.425Z,8.40
2022-07-29T01:56:12.004Z,2.00
2022-07-29T01:58:42.194Z,2.17
2022-07-29T02:01:12.139Z,5.00
2022-07-29T02:03:39.958Z,2.20
2022-07-29T02:06:08.799Z,2.40
2022-07-29T02:08:36.551Z,3.30
2022-07-29T02:11:05.778Z,1.83
2022-07-29T02:13:35.227Z,2.37
2022-07-29T02:16:03.439Z,2.50
2022-07-29T02:18:31.735Z,3.70
2022-07-29T02:21:00.315Z,1.97
2022-07-29T02:23:27.527Z,2.93
2022-07-29T02:25:57.378Z,3.10
2022-07-29T02:28:27.447Z,4.73
2022-07-29T02:30:59.926Z,4.17
2022-07-29T02:33:27.488Z,4.33
2022-07-29T02:35:55.567Z,2.07
2022-07-29T02:38:41.724Z,2.37
2022-07-29T02:41:20.795Z,6.73
2022-07-29T02:43:51.150Z,1.63
2022-07-29T02:46:28.954Z,1.50
2022-07-29T02:49:02.788Z,1.97
2022-07-29T02:51:43.343Z,1.90
2022-07-29T02:54:18.684Z,4.03
2022-07-29T02:56:47.263Z,2.20
2022-07-29T02:59:14.922Z,2.50
2022-07-29T03:01:44.592Z,5.27
2022-07-29T03:04:13.409Z,1.77
2022-07-29T03:06:41.930Z,2.47
2022-07-29T03:09:12.489Z,2.43
2022-07-29T03:11:50.153Z,3.97
2022-07-29T03:14:21.502Z,3.57
2022-07-29T03:16:49.419Z,5.57
2022-07-29T03:19:17.146Z,4.30
2022-07-29T03:21:43.734Z,1.77
2022-07-29T03:24:11.062Z,3.13
2022-07-29T03:26:37.927Z,6.47
2022-07-29T03:29:04.588Z,3.73
2022-07-29T03:31:32.228Z,2.20
2022-07-29T03:34:00.231Z,4.37
2022-07-29T03:36:26.896Z,4.07
2022-07-29T03:38:54.175Z,2.33
2022-07-29T03:41:23.554Z,3.37
2022-07-29T03:43:52.650Z,3.33
2022-07-29T03:46:23.416Z,1.70
2022-07-29T03:48:53.601Z,1.33
2022-07-29T03:51:20.396Z,2.70
2022-07-29T03:54:14.200Z,5.40
2022-07-29T03:56:45.441Z,3.33
2022-07-29T03:59:13.635Z,3.90
2022-07-29T04:01:41.558Z,4.33
2022-07-29T04:04:08.370Z,5.30
2022-07-29T04:06:43.014Z,1.97
2022-07-29T04:09:10.461Z,1.43
2022-07-29T04:12:02.408Z,2.17
2022-07-29T04:14:27.953Z,2.47
2022-07-29T04:16:54.650Z,1.47
2022-07-29T04:19:21.223Z,3.37
2022-07-29T04:21:48.068Z,1.57
2022-07-29T04:24:15.199Z,2.83
2022-07-29T04:26:42.096Z,2.27
2022-07-29T04:29:08.703Z,1.63
2022-07-29T04:31:35.432Z,1.73
2022-07-29T04:34:02.092Z,7.40
2022-07-29T04:36:29.963Z,1.97
2022-07-29T04:38:56.968Z,3.63
2022-07-29T04:41:23.570Z,3.90
2022-07-29T04:44:01.734Z,3.63
2022-07-29T04:46:28.533Z,3.73
2022-07-29T04:48:55.234Z,5.43
2022-07-29T04:51:21.935Z,2.07
2022-07-29T04:53:48.823Z,6.17
2022-07-29T04:56:15.454Z,1.37
2022-07-29T04:58:42.003Z,1.60
2022-07-29T05:01:08.696Z,1.20
2022-07-29T05:03:35.321Z,5.77
2022-07-29T05:06:01.922Z,3.07
2022-07-29T05:08:28.622Z,3.77
2022-07-29T05:10:55.399Z,3.03
2022-07-29T05:13:21.962Z,4.30
2022-07-29T05:15:48.658Z,2.20
2022-07-29T05:18:15.275Z,2.27
2022-07-29T05:20:41.995Z,3.33
2022-07-29T05:23:08.703Z,4.03
2022-07-29T05:25:43.179Z,3.13
2022-07-29T05:28:11.513Z,2.37
2022-07-29T05:30:38.178Z,4.43
2022-07-29T05:33:04.839Z,1.13
2022-07-29T05:35:31.433Z,2.17
2022-07-29T05:37:58.001Z,2.83
2022-07-29T05:40:24.642Z,3.13
2022-07-29T05:42:51.249Z,2.27
2022-07-29T05:45:17.930Z,7.07
2022-07-29T05:47:44.592Z,1.50
2022-07-29T05:50:11.395Z,3.13
2022-07-29T05:52:38.025Z,1.53
2022-07-29T05:55:06.387Z,3.33
2022-07-29T05:57:33.154Z,2.80
2022-07-29T06:00:00.111Z,3.57
2022-07-29T06:02:26.752Z,3.47
2022-07-29T06:04:53.436Z,2.10
2022-07-29T06:07:20.443Z,3.57
2022-07-29T06:09:47.009Z,1.30
2022-07-29T06:12:13.615Z,4.67
2022-07-29T06:14:40.246Z,1.50
2022-07-29T06:17:07.014Z,3.50
2022-07-29T06:19:36.629Z,3.60
2022-07-29T06:22:03.769Z,3.63
2022-07-29T06:24:30.375Z,5.87
2022-07-29T06:26:57.024Z,2.80
2022-07-29T06:29:23.695Z,2.63
2022-07-29T06:31:50.250Z,4.93
2022-07-29T06:34:17.381Z,3.37
2022-07-29T06:36:44.467Z,3.73
2022-07-29T06:39:12.943Z,4.07
2022-07-29T06:41:39.690Z,2.97
2022-07-29T06:44:06.395Z,3.23
2022-07-29T06:46:33.603Z,2.83
2022-07-29T06:49:02.448Z,4.60
2022-07-29T06:51:29.422Z,7.27
2022-07-29T06:53:59.822Z,3.20
2022-07-29T06:56:39.098Z,5.37
2022-07-29T06:59:08.023Z,2.17
2022-07-29T07:01:35.798Z,2.00
2022-07-29T07:04:02.569Z,3.23
2022-07-29T07:06:29.232Z,2.10
2022-07-29T07:08:55.883Z,4.93
2022-07-29T07:11:22.621Z,1.73
2022-07-29T07:13:49.351Z,2.07
2022-07-29T07:16:16.120Z,5.13
2022-07-29T07:18:43.042Z,2.00
2022-07-29T07:21:09.811Z,1.47
2022-07-29T07:23:36.425Z,2.37
2022-07-29T07:26:03.971Z,2.80
2022-07-29T07:28:30.649Z,3.03
2022-07-29T07:30:57.380Z,3.80
2022-07-29T07:33:24.207Z,3.80
2022-07-29T07:35:50.873Z,3.37
2022-07-29T07:38:17.522Z,2.13
2022-07-29T07:40:44.080Z,4.00
2022-07-29T07:43:10.621Z,3.30
2022-07-29T07:45:38.355Z,1.67
2022-07-29T07:48:05.778Z,1.43
2022-07-29T07:50:32.708Z,1.67
2022-07-29T07:52:59.430Z,4.57
2022-07-29T07:55:27.300Z,4.13
2022-07-29T07:57:54.696Z,5.60
2022-07-29T08:00:23.760Z,3.63
2022-07-29T08:02:51.056Z,3.83
2022-07-29T08:05:18.468Z,3.07
2022-07-29T08:07:47.124Z,5.33
2022-07-29T08:10:15.630Z,5.57
2022-07-29T08:12:43.077Z,4.77
2022-07-29T08:15:10.054Z,3.93
2022-07-29T08:17:36.988Z,3.80
2022-07-29T08:20:04.352Z,4.50
2022-07-29T08:22:31.044Z,4.63
2022-07-29T08:24:57.726Z,2.50
2022-07-29T08:27:42.890Z,6.33
2022-07-29T08:30:11.057Z,1.87
2022-07-29T08:32:53.199Z,3.57
2022-07-29T08:35:21.492Z,4.30
2022-07-29T08:37:48.185Z,3.50
2022-07-29T08:40:15.282Z,4.23
2022-07-29T08:42:42.030Z,7.37
2022-07-29T08:45:09.299Z,4.20
2022-07-29T08:47:40.610Z,2.83
2022-07-29T08:50:09.346Z,4.13
2022-07-29T08:52:41.759Z,4.70
2022-07-29T08:55:10.513Z,3.97
2022-07-29T08:57:39.442Z,3.07
2022-07-29T09:00:19.093Z,3.77
2022-07-29T09:02:52.543Z,4.37
2022-07-29T09:05:20.034Z,2.53
2022-07-29T09:07:48.866Z,3.27
2022-07-29T09:14:42.080Z,5.00
2022-07-29T09:17:08.786Z,6.70
2022-07-29T09:19:37.743Z,1.63
2022-07-29T09:22:06.350Z,3.53
2022-07-29T09:24:35.600Z,2.07
2022-07-29T09:27:02.920Z,9.87
2022-07-29T09:29:32.148Z,3.33
2022-07-29T09:32:01.285Z,3.57
2022-07-29T09:34:31.015Z,2.40
2022-07-29T09:36:58.445Z,3.57
2022-07-29T09:39:31.653Z,3.13
2022-07-29T09:42:00.994Z,4.10
2022-07-29T09:44:27.993Z,7.00
2022-07-29T09:47:06.860Z,3.53
2022-07-29T09:49:51.046Z,3.70
2022-07-29T09:52:17.796Z,4.20
2022-07-29T09:54:44.385Z,7.87
2022-07-29T09:57:30.601Z,1.50
2022-07-29T10:00:27.122Z,5.40
2022-07-29T10:03:02.032Z,1.30
2022-07-29T10:05:36.512Z,3.23
2022-07-29T10:08:03.946Z,5.50
2022-07-29T10:10:37.442Z,2.03
2022-07-29T10:13:09.832Z,3.73
2022-07-29T10:15:45.792Z,4.27
2022-07-29T10:18:14.342Z,2.23
2022-07-29T10:20:41.390Z,2.50
2022-07-29T10:23:08.057Z,4.10
2022-07-29T10:25:34.683Z,3.63
2022-07-29T10:28:01.398Z,4.23
2022-07-29T10:30:28.631Z,4.53
2022-07-29T10:33:09.866Z,4.77
2022-07-29T10:36:14.321Z,3.53
2022-07-29T10:38:52.721Z,3.50
2022-07-29T10:41:31.932Z,1.70
2022-07-29T10:44:14.751Z,1.90
2022-07-29T10:46:44.937Z,6.20
2022-07-29T10:49:24.857Z,3.30
2022-07-29T10:51:51.791Z,4.83
2022-07-29T10:54:19.731Z,3.33
2022-07-29T10:56:47.622Z,8.50
2022-07-29T10:59:21.396Z,2.27
2022-07-29T11:01:52.466Z,2.53
2022-07-29T11:04:45.927Z,7.63
2022-07-29T11:07:15.259Z,4.97
2022-07-29T11:09:41.906Z,2.50
2022-07-29T11:12:39.245Z,3.40
2022-07-29T11:15:17.906Z,3.60
2022-07-29T11:18:00.283Z,3.53
2022-07-29T11:20:45.480Z,1.80
2022-07-29T11:23:33.983Z,2.90
2022-07-29T11:26:23.675Z,2.43
2022-07-29T11:29:00.292Z,3.47
2022-07-29T11:31:44.666Z,3.43
2022-07-29T11:34:17.315Z,1.90
2022-07-29T11:37:12.388Z,4.20
2022-07-29T11:39:54.350Z,4.47
2022-07-29T11:42:32.211Z,2.53
2022-07-29T11:45:09.011Z,5.07
2022-07-29T11:47:56.105Z,4.90
2022-07-29T11:50:36.275Z,3.53
2022-07-29T11:53:11.881Z,2.13
2022-07-29T11:55:51.368Z,7.50
2022-07-29T11:58:26.511Z,4.37
2022-07-29T12:00:55.577Z,5.87
2022-07-29T12:03:35.502Z,2.13
2022-07-29T12:06:23.420Z,3.83
2022-07-29T12:08:50.030Z,4.53
2022-07-29T12:11:20.391Z,5.03
2022-07-29T12:13:49.166Z,7.60
2022-07-29T12:16:16.312Z,4.70
2022-07-29T12:19:02.315Z,2.83
2022-07-29T12:21:31.031Z,4.07
2022-07-29T12:24:03.391Z,3.17
2022-07-29T12:26:35.908Z,5.03
2022-07-29T12:29:03.354Z,4.10
2022-07-29T12:31:42.976Z,4.37
2022-07-29T12:34:15.883Z,5.37
2022-07-29T12:36:43.912Z,1.97
2022-07-29T12:39:12.264Z,3.07
2022-07-29T12:41:39.933Z,2.30
2022-07-29T12:44:06.516Z,5.60
2022-07-29T12:46:33.496Z,3.13
2022-07-29T12:49:00.291Z,4.40
2022-07-29T12:51:38.379Z,4.80
2022-07-29T12:54:11.606Z,2.77
2022-07-29T12:56:44.378Z,3.93
2022-07-29T12:59:14.431Z,2.73
2022-07-29T13:01:41.218Z,3.47
2022-07-29T13:04:07.925Z,5.37
2022-07-29T13:06:46.096Z,3.33
2022-07-29T13:09:18.897Z,3.23
2022-07-29T13:11:48.843Z,2.93
2022-07-29T13:14:32.669Z,3.67
2022-07-29T13:17:17.617Z,6.13
2022-07-29T13:20:05.393Z,5.10
2022-07-29T13:22:35.746Z,3.03
2022-07-29T13:25:03.149Z,2.30
2022-07-29T13:27:32.980Z,3.87
2022-07-29T13:30:01.911Z,3.63
2022-07-29T13:32:30.709Z,4.77
2022-07-29T13:35:00.176Z,6.97
2022-07-29T13:37:27.371Z,3.93
2022-07-29T13:39:55.141Z,3.07
2022-07-29T13:42:21.828Z,3.13
2022-07-29T13:44:49.595Z,6.27
2022-07-29T13:47:17.098Z,2.40
2022-07-29T13:49:43.791Z,2.20
2022-07-29T13:52:10.468Z,2.90
2022-07-29T13:54:42.111Z,6.00
2022-07-29T13:57:11.539Z,2.17
2022-07-29T13:59:38.546Z,3.07
2022-07-29T14:02:05.914Z,3.03
2022-07-29T14:04:33.319Z,2.57
2022-07-29T14:07:00.199Z,4.33
2022-07-29T14:09:31.033Z,3.67
2022-07-29T14:12:08.183Z,2.17
2022-07-29T14:14:36.426Z,4.50
2022-07-29T14:17:04.101Z,2.30
2022-07-29T14:19:32.812Z,2.63
2022-07-29T14:21:59.902Z,4.20
2022-07-29T14:24:26.855Z,5.27
2022-07-29T14:26:53.559Z,3.67
2022-07-29T14:29:20.234Z,2.73
2022-07-29T14:31:46.855Z,3.10
2022-07-29T14:34:13.499Z,3.47
2022-07-29T14:36:40.062Z,5.40
2022-07-29T14:39:06.641Z,3.47
2022-07-29T14:41:33.707Z,5.87
2022-07-29T14:44:03.476Z,7.93
2022-07-29T14:46:30.299Z,5.20
2022-07-29T14:48:56.988Z,3.43
2022-07-29T14:51:23.589Z,7.60
2022-07-29T14:53:59.019Z,3.43
2022-07-29T14:56:46.535Z,6.40
2022-07-29T14:59:12.187Z,3.57
2022-07-29T15:01:38.857Z,5.73
2022-07-29T15:04:05.522Z,6.00
2022-07-29T15:06:32.218Z,8.83
2022-07-29T15:08:58.824Z,3.17
2022-07-29T15:11:26.353Z,5.43
2022-07-29T15:13:52.959Z,4.87
2022-07-29T15:16:19.765Z,4.37
2022-07-29T15:18:46.375Z,4.93
2022-07-29T15:21:12.982Z,5.57
2022-07-29T15:23:39.641Z,4.43
2022-07-29T15:26:06.235Z,5.80
2022-07-29T15:28:32.832Z,6.43
2022-07-29T15:30:59.476Z,3.20
2022-07-29T15:33:26.736Z,3.33
2022-07-29T15:35:53.364Z,4.30
2022-07-29T15:38:20.005Z,1.97
2022-07-29T15:40:55.565Z,11.90
2022-07-29T15:43:22.391Z,3.23
2022-07-29T15:46:07.856Z,5.53
2022-07-29T15:48:38.164Z,8.30
2022-07-29T15:51:04.801Z,3.80
2022-07-29T15:53:31.551Z,3.17
2022-07-29T15:55:59.751Z,4.93
2022-07-29T15:58:26.424Z,7.53
2022-07-29T16:00:53.091Z,4.80
2022-07-29T16:03:20.866Z,6.07
2022-07-29T16:05:47.451Z,5.07
2022-07-29T16:08:14.042Z,4.37
2022-07-29T16:10:41.121Z,9.37
2022-07-29T16:13:07.703Z,5.23
2022-07-29T16:15:34.295Z,5.10
2022-07-29T16:18:01.055Z,3.73
2022-07-29T16:20:27.730Z,3.80
2022-07-29T16:22:55.223Z,3.67
2022-07-29T16:25:29.555Z,4.07
2022-07-29T16:28:05.809Z,3.13
2022-07-29T16:30:32.438Z,5.30
2022-07-29T16:32:59.003Z,9.03
2022-07-29T16:35:25.673Z,2.83
2022-07-29T16:38:06.637Z,5.40
2022-07-29T16:40:33.311Z,3.53
2022-07-29T16:42:59.882Z,5.63
2022-07-29T16:45:26.603Z,7.17
2022-07-29T16:48:00.962Z,8.37
2022-07-29T16:50:28.762Z,2.70
2022-07-29T16:52:56.327Z,5.23
2022-07-29T16:55:23.467Z,8.83
2022-07-29T16:57:52.490Z,5.07
2022-07-29T17:00:19.884Z,10.23
2022-07-29T17:02:46.551Z,8.53
2022-07-29T17:05:13.233Z,5.30
2022-07-29T17:07:40.820Z,9.17
2022-07-29T17:10:08.174Z,3.43
2022-07-29T17:12:40.001Z,6.27
2022-07-29T17:15:08.808Z,4.13
2022-07-29T17:17:39.161Z,7.83
2022-07-29T17:20:21.567Z,9.47
2022-07-29T17:22:48.459Z,7.67
2022-07-29T17:25:21.035Z,8.03
2022-07-29T17:27:49.527Z,5.37
2022-07-29T17:30:16.234Z,3.47
2022-07-29T17:32:42.821Z,9.80
2022-07-29T17:35:28.281Z,7.77
2022-07-29T17:37:54.978Z,9.77
2022-07-29T17:40:21.857Z,4.37
2022-07-29T17:42:48.544Z,9.37
2022-07-29T17:45:15.165Z,3.30
2022-07-29T17:47:41.820Z,13.33
2022-07-29T17:50:08.723Z,6.73
2022-07-29T17:52:35.276Z,9.10
2022-07-29T17:55:02.571Z,4.67
2022-07-29T17:57:29.242Z,5.17
2022-07-29T17:59:55.858Z,3.50
2022-07-29T18:02:22.610Z,6.23
2022-07-29T18:04:53.124Z,5.97
2022-07-29T18:07:19.768Z,4.23
2022-07-29T18:09:46.394Z,4.33
2022-07-29T18:12:12.998Z,4.77
2022-07-29T18:14:39.590Z,4.93
2022-07-29T18:17:06.151Z,7.07
2022-07-29T18:19:32.810Z,6.00
2022-07-29T18:22:04.889Z,7.23
2022-07-29T18:24:32.404Z,4.20
2022-07-29T18:26:59.339Z,6.70
2022-07-29T18:29:28.739Z,3.93
2022-07-29T18:31:55.399Z,8.40
2022-07-29T18:34:21.985Z,6.20
2022-07-29T18:36:48.551Z,4.17
2022-07-29T18:39:20.639Z,4.17
2022-07-29T18:41:50.197Z,5.93
2022-07-29T18:44:21.930Z,4.70
2022-07-29T18:46:49.916Z,10.07
2022-07-29T18:49:16.614Z,8.67
2022-07-29T18:51:43.273Z,6.67
2022-07-29T18:54:10.753Z,6.50
2022-07-29T18:56:38.560Z,4.70
2022-07-29T18:59:05.307Z,5.60
2022-07-29T19:01:32.352Z,6.87
2022-07-29T19:04:00.079Z,5.70
2022-07-29T19:06:26.842Z,8.77
2022-07-29T19:08:53.588Z,6.90
2022-07-29T19:11:20.236Z,5.00
2022-07-29T19:13:46.947Z,7.47
2022-07-29T19:16:14.455Z,6.67
2022-07-29T19:18:41.640Z,6.40
2022-07-29T19:21:08.338Z,7.27
2022-07-29T19:23:59.976Z,5.37
2022-07-29T19:26:21.577Z,4.60
2022-07-29T19:28:48.851Z,5.57
2022-07-29T19:31:15.978Z,7.30
2022-07-29T19:33:42.787Z,7.93
2022-07-29T19:36:09.433Z,9.00
2022-07-29T19:38:38.153Z,6.23
2022-07-29T19:41:06.228Z,5.43
2022-07-29T19:43:50.844Z,5.57
2022-07-29T19:46:22.852Z,11.17
2022-07-29T19:48:50.171Z,40.73
2022-07-29T19:51:17.270Z,24.20
2022-07-29T19:53:43.871Z,18.70
2022-07-29T19:56:10.435Z,9.50
2022-07-29T19:58:37.161Z,10.50
2022-07-29T20:01:09.992Z,14.17
2022-07-29T20:03:39.652Z,13.27
2022-07-29T20:06:07.368Z,9.43
2022-07-29T20:08:34.282Z,10.43
2022-07-29T20:11:00.886Z,11.47
2022-07-29T20:13:27.503Z,10.37
2022-07-29T20:15:54.140Z,9.50
2022-07-29T20:18:20.764Z,30.60
2022-07-29T20:20:49.100Z,19.67
2022-07-29T20:23:16.417Z,13.73
2022-07-29T20:25:43.204Z,9.60
2022-07-29T20:28:09.964Z,9.23
2022-07-29T20:30:38.389Z,11.57
2022-07-29T20:33:05.485Z,9.97
2022-07-29T20:35:32.132Z,9.70
2022-07-29T20:37:59.714Z,9.57
2022-07-29T20:40:26.781Z,8.23
2022-07-29T20:42:54.478Z,14.63
2022-07-29T20:45:21.638Z,12.30
2022-07-29T20:47:48.458Z,8.80
2022-07-29T20:50:15.379Z,8.37
2022-07-29T20:52:43.949Z,13.43
2022-07-29T20:55:10.738Z,8.83
2022-07-29T20:57:39.427Z,15.03
2022-07-29T21:00:08.560Z,7.73
2022-07-29T21:02:35.707Z,7.13
2022-07-29T21:05:02.302Z,7.77
2022-07-29T21:07:28.925Z,6.70
2022-07-29T21:09:55.522Z,7.43
2022-07-29T21:12:22.593Z,6.53
2022-07-29T21:14:49.597Z,10.97
2022-07-29T21:17:19.197Z,9.00
2022-07-29T21:19:50.538Z,6.77
2022-07-29T21:22:18.721Z,7.57
2022-07-29T21:24:45.354Z,11.47
2022-07-29T21:27:30.497Z,7.23
2022-07-29T21:29:57.072Z,8.53
2022-07-29T21:32:27.402Z,8.40
2022-07-29T21:34:57.282Z,6.40
2022-07-29T21:37:23.897Z,7.33
2022-07-29T21:39:50.538Z,8.60
2022-07-29T21:42:17.131Z,16.80
2022-07-29T21:44:44.199Z,8.87
2022-07-29T21:47:11.737Z,7.40
2022-07-29T21:49:38.505Z,6.93
2022-07-29T21:52:06.115Z,8.13
2022-07-29T21:54:34.827Z,8.80
2022-07-29T21:57:01.776Z,9.93
2022-07-29T21:59:29.457Z,8.50
2022-07-29T22:01:56.412Z,11.33
2022-07-29T22:04:23.210Z,11.33
2022-07-29T22:06:49.953Z,9.20
2022-07-29T22:09:16.673Z,11.03
2022-07-29T22:11:43.556Z,8.77
2022-07-29T22:14:10.517Z,7.40
2022-07-29T22:16:37.365Z,9.00
2022-07-29T22:19:04.136Z,7.60
2022-07-29T22:21:31.135Z,8.80
2022-07-29T22:23:58.063Z,9.30
2022-07-29T22:26:24.789Z,8.47
2022-07-29T22:28:51.470Z,11.23
2022-07-29T22:31:18.467Z,10.17
2022-07-29T22:33:45.255Z,7.27
2022-07-29T22:36:11.881Z,11.73
2022-07-29T22:38:38.476Z,9.43
2022-07-29T22:41:05.131Z,11.63
2022-07-29T22:43:32.273Z,8.03
2022-07-29T22:45:58.994Z,9.10
2022-07-29T22:48:25.656Z,10.03
2022-07-29T22:50:52.438Z,12.73
2022-07-29T22:53:19.042Z,10.87
2022-07-29T22:55:45.659Z,10.57
2022-07-29T22:58:12.410Z,9.87
2022-07-29T23:00:39.041Z,10.47
2022-07-29T23:03:05.606Z,12.37
2022-07-29T23:05:32.644Z,12.80
2022-07-29T23:07:59.698Z,15.60
2022-07-29T23:10:26.486Z,18.93
2022-07-29T23:12:53.060Z,13.40
2022-07-29T23:15:19.979Z,10.87
2022-07-29T23:17:46.545Z,8.87
2022-07-29T23:20:13.662Z,9.93
2022-07-29T23:22:41.620Z,11.63
2022-07-29T23:25:08.687Z,10.40
2022-07-29T23:27:35.463Z,8.57
2022-07-29T23:30:02.606Z,8.27
2022-07-29T23:32:29.250Z,9.07
2022-07-29T23:34:55.869Z,18.00
2022-07-29T23:37:22.621Z,9.00
2022-07-29T23:39:49.197Z,9.60
2022-07-29T23:42:15.762Z,10.73
2022-07-29T23:44:42.353Z,7.87
2022-07-29T23:47:08.928Z,9.67
2022-07-29T23:49:35.798Z,17.37
2022-07-29T23:52:02.393Z,8.00
2022-07-29T23:54:28.935Z,14.67
2022-07-29T23:56:58.076Z,10.83
2022-07-29T23:59:25.151Z,11.40
